Time;durP1;ratioP1;P1;durP2;ratioP2;P2;SDS_P1;SDS_P2;PMS_P1;PMS_P2;Temp;Humidity;BMP_temperature;BMP_pressure;BME280_temperature;BME280_humidity;BME280_pressure;Samples;Min_cycle;Max_cycle;Signal;HPM_P1;HPM_P2
2023/11/01 00:01:25;;;;;;;4.55;0.50;;;;;;;;;;5022188;28;20045;-74
2023/11/01 00:03:56;;;;;;;5.05;0.70;;;;;;;;;;5022206;28;20050;-73
2023/11/01 00:06:28;;;;;;;2.70;0.57;;;;;;;;;;5021618;28;20045;-74
2023/11/01 00:08:59;;;;;;;1.30;0.70;;;;;;;;;;5022116;28;20052;-74
2023/11/01 00:11:29;;;;;;;2.47;0.50;;;;;;;;;;5003624;28;20052;-75
2023/11/01 00:14:00;;;;;;;3.30;0.50;;;;;;;;;;5021801;28;20052;-73
2023/11/01 00:16:31;;;;;;;4.53;0.85;;;;;;;;;;5021544;28;20041;-73
2023/11/01 00:19:01;;;;;;;1.63;0.43;;;;;;;;;;5021936;28;20053;-73
2023/11/01 00:21:31;;;;;;;3.70;0.40;;;;;;;;;;5021550;28;20042;-73
2023/11/01 00:24:04;;;;;;;3.17;0.57;;;;;;;;;;5021269;28;20046;-72
2023/11/01 00:26:35;;;;;;;1.80;0.50;;;;;;;;;;5022350;28;20052;-71
2023/11/01 00:29:07;;;;;;;0.95;0.40;;;;;;;;;;5021605;28;20373;-75
2023/11/01 00:31:36;;;;;;;5.70;1.02;;;;;;;;;;5022227;28;20527;-73
2023/11/01 00:34:08;;;;;;;3.63;0.80;;;;;;;;;;5021113;28;20107;-71
2023/11/01 00:36:40;;;;;;;1.75;0.57;;;;;;;;;;5003343;28;20045;-73
2023/11/01 00:39:10;;;;;;;1.90;0.50;;;;;;;;;;5002900;28;20045;-74
2023/11/01 00:41:40;;;;;;;4.47;0.70;;;;;;;;;;5021368;28;20400;-75
2023/11/01 00:44:14;;;;;;;1.75;0.50;;;;;;;;;;5003829;28;20473;-75
2023/11/01 00:46:52;;;;;;;2.47;0.47;;;;;;;;;;5020255;28;20054;-74
2023/11/01 00:49:22;;;;;;;3.88;0.73;;;;;;;;;;5021727;28;20597;-74
2023/11/01 00:51:53;;;;;;;1.83;0.50;;;;;;;;;;5022577;28;20041;-74
2023/11/01 00:54:23;;;;;;;3.92;0.80;;;;;;;;;;5007139;28;20045;-75
2023/11/01 00:56:54;;;;;;;2.97;0.75;;;;;;;;;;5025730;28;20037;-71
2023/11/01 00:59:25;;;;;;;1.52;0.47;;;;;;;;;;5007183;28;20049;-73
2023/11/01 01:01:56;;;;;;;3.97;0.68;;;;;;;;;;5025715;28;20038;-75
2023/11/01 01:04:25;;;;;;;3.25;1.40;;;;;;;;;;5025119;28;20069;-73
2023/11/01 01:06:56;;;;;;;4.97;0.65;;;;;;;;;;5025221;28;20049;-74
2023/11/01 01:09:27;;;;;;;4.90;1.17;;;;;;;;;;5024324;28;20041;-74
2023/11/01 01:11:57;;;;;;;2.65;0.38;;;;;;;;;;5024200;28;20408;-74
2023/11/01 01:14:27;;;;;;;2.20;0.50;;;;;;;;;;5024301;28;20392;-74
2023/11/01 01:16:57;;;;;;;0.93;0.38;;;;;;;;;;5006137;28;20056;-72
2023/11/01 01:19:28;;;;;;;6.35;0.60;;;;;;;;;;5022174;28;20057;-75
2023/11/01 01:21:59;;;;;;;1.42;0.50;;;;;;;;;;5024985;28;20492;-73
2023/11/01 01:24:38;;;;;;;2.50;0.63;;;;;;;;;;5024429;28;20045;-76
2023/11/01 01:27:12;;;;;;;7.40;0.60;;;;;;;;;;5006819;28;20052;-75
2023/11/01 01:29:42;;;;;;;1.02;0.50;;;;;;;;;;5006496;28;20507;-76
2023/11/01 01:32:13;;;;;;;1.48;0.60;;;;;;;;;;5007114;28;20053;-76
2023/11/01 01:34:44;;;;;;;5.03;0.63;;;;;;;;;;5025113;28;20377;-75
2023/11/01 01:37:15;;;;;;;1.55;0.57;;;;;;;;;;5006767;28;20053;-72
2023/11/01 01:39:46;;;;;;;0.95;0.70;;;;;;;;;;5006267;28;20094;-74
2023/11/01 01:42:16;;;;;;;3.08;0.50;;;;;;;;;;5024132;28;20037;-74
2023/11/01 01:44:46;;;;;;;3.92;0.60;;;;;;;;;;5024135;28;20054;-73
2023/11/01 01:47:17;;;;;;;0.93;0.25;;;;;;;;;;5024243;28;20041;-75
2023/11/01 01:49:52;;;;;;;4.35;0.45;;;;;;;;;;5006370;28;20061;-73
2023/11/01 01:53:23;;;;;;;1.92;0.50;;;;;;;;;;5006531;28;20060;-75
2023/11/01 01:56:26;;;;;;;4.50;0.55;;;;;;;;;;5012250;28;20054;-73
2023/11/01 01:59:05;;;;;;;1.98;0.43;;;;;;;;;;5024399;28;20516;-73
2023/11/01 02:01:40;;;;;;;1.08;0.43;;;;;;;;;;5006294;28;20057;-73
2023/11/01 02:04:13;;;;;;;1.30;0.43;;;;;;;;;;5023487;28;20049;-74
2023/11/01 02:06:44;;;;;;;1.60;0.47;;;;;;;;;;5024236;28;20049;-75
2023/11/01 02:09:17;;;;;;;3.80;0.75;;;;;;;;;;5005583;28;20049;-76
2023/11/01 02:11:49;;;;;;;4.50;1.33;;;;;;;;;;5005264;28;20053;-73
2023/11/01 02:14:21;;;;;;;3.58;0.52;;;;;;;;;;5005586;28;20131;-74
2023/11/01 02:16:52;;;;;;;5.95;0.70;;;;;;;;;;5006140;28;20054;-74
2023/11/01 02:19:23;;;;;;;3.70;0.70;;;;;;;;;;5005398;28;20050;-72
2023/11/01 02:21:54;;;;;;;2.08;0.57;;;;;;;;;;5023646;28;20049;-73
2023/11/01 02:24:24;;;;;;;7.05;0.70;;;;;;;;;;5005407;28;20049;-75
2023/11/01 02:26:54;;;;;;;1.50;0.52;;;;;;;;;;5005130;28;20490;-74
2023/11/01 02:29:25;;;;;;;3.03;0.63;;;;;;;;;;5023791;28;20057;-74
2023/11/01 02:31:57;;;;;;;5.88;0.52;;;;;;;;;;5023473;28;20045;-75
2023/11/01 02:34:27;;;;;;;2.50;0.55;;;;;;;;;;5023436;28;20392;-74
2023/11/01 02:36:57;;;;;;;2.22;0.52;;;;;;;;;;5023335;28;20041;-75
2023/11/01 02:39:28;;;;;;;1.80;0.45;;;;;;;;;;5023068;28;20419;-75
2023/11/01 02:41:59;;;;;;;2.50;0.30;;;;;;;;;;5023628;28;20037;-75
2023/11/01 02:44:30;;;;;;;4.57;0.50;;;;;;;;;;5023189;28;20056;-74
2023/11/01 02:46:59;;;;;;;2.88;0.90;;;;;;;;;;5004925;28;20748;-75
2023/11/01 02:49:35;;;;;;;2.97;0.45;;;;;;;;;;5005382;28;20045;-75
2023/11/01 02:52:05;;;;;;;1.17;0.50;;;;;;;;;;5023086;28;20044;-76
2023/11/01 02:54:38;;;;;;;3.25;0.50;;;;;;;;;;5023547;28;20044;-74
2023/11/01 02:57:08;;;;;;;2.42;0.50;;;;;;;;;;5023582;28;20045;-75
2023/11/01 02:59:38;;;;;;;3.15;0.45;;;;;;;;;;5022772;28;20037;-75
2023/11/01 03:02:09;;;;;;;1.80;0.47;;;;;;;;;;5022910;28;20326;-74
2023/11/01 03:04:40;;;;;;;1.85;0.40;;;;;;;;;;5004150;28;20407;-74
2023/11/01 03:07:11;;;;;;;3.40;0.60;;;;;;;;;;5022586;28;20505;-72
2023/11/01 03:09:41;;;;;;;2.60;0.52;;;;;;;;;;5023065;28;20049;-72
2023/11/01 03:12:15;;;;;;;3.75;0.63;;;;;;;;;;5018630;28;20053;-71
2023/11/01 03:14:46;;;;;;;5.22;0.50;;;;;;;;;;5022092;28;20535;-70
2023/11/01 03:17:16;;;;;;;1.23;0.50;;;;;;;;;;5004520;28;20053;-72
2023/11/01 03:19:46;;;;;;;5.65;0.50;;;;;;;;;;5004555;28;20050;-72
2023/11/01 03:22:18;;;;;;;1.30;0.70;;;;;;;;;;5022651;28;20888;-71
2023/11/01 03:24:50;;;;;;;1.17;0.60;;;;;;;;;;5005378;28;20501;-71
2023/11/01 03:27:23;;;;;;;0.80;0.40;;;;;;;;;;5005749;28;20041;-74
2023/11/01 03:29:56;;;;;;;3.30;0.43;;;;;;;;;;5005974;28;20034;-75
2023/11/01 03:32:26;;;;;;;2.65;0.52;;;;;;;;;;5022612;28;20045;-70
2023/11/01 03:34:58;;;;;;;2.70;0.60;;;;;;;;;;5023126;28;20377;-73
2023/11/01 03:37:29;;;;;;;2.78;0.70;;;;;;;;;;5022536;28;20052;-72
2023/11/01 03:39:58;;;;;;;2.38;0.70;;;;;;;;;;5003740;28;20048;-75
2023/11/01 03:42:29;;;;;;;3.22;0.85;;;;;;;;;;5022425;28;20064;-72
2023/11/01 03:45:00;;;;;;;2.35;0.50;;;;;;;;;;5022749;28;20057;-73
2023/11/01 03:47:31;;;;;;;2.35;0.68;;;;;;;;;;5004176;28;20045;-73
2023/11/01 03:50:01;;;;;;;3.65;0.50;;;;;;;;;;5022034;28;20038;-73
2023/11/01 03:52:31;;;;;;;1.77;0.40;;;;;;;;;;5021625;28;20045;-71
2023/11/01 03:55:04;;;;;;;2.83;0.40;;;;;;;;;;5004297;28;20041;-73
2023/11/01 03:57:35;;;;;;;4.50;0.60;;;;;;;;;;5022017;28;20046;-71
2023/11/01 04:00:07;;;;;;;3.22;0.70;;;;;;;;;;5022358;28;20041;-72
2023/11/01 04:02:37;;;;;;;2.83;0.50;;;;;;;;;;5022521;28;20053;-72
2023/11/01 04:05:08;;;;;;;3.30;0.45;;;;;;;;;;5021909;28;20048;-74
2023/11/01 04:07:39;;;;;;;3.20;0.70;;;;;;;;;;5022098;28;20045;-74
2023/11/01 04:10:10;;;;;;;4.93;0.80;;;;;;;;;;5021752;28;20042;-73
2023/11/01 04:12:41;;;;;;;2.20;0.63;;;;;;;;;;5022296;28;20581;-73
2023/11/01 04:15:12;;;;;;;4.43;0.90;;;;;;;;;;5021715;28;20041;-74
2023/11/01 04:17:43;;;;;;;0.85;0.50;;;;;;;;;;5022166;28;20448;-74
2023/11/01 04:20:14;;;;;;;3.85;0.65;;;;;;;;;;5021902;28;20050;-75
2023/11/01 04:22:44;;;;;;;3.47;0.70;;;;;;;;;;5003864;28;20045;-73
2023/11/01 04:25:15;;;;;;;2.88;0.60;;;;;;;;;;5022415;28;20041;-75
2023/11/01 04:27:49;;;;;;;1.75;0.63;;;;;;;;;;5024600;28;20045;-76
2023/11/01 04:30:21;;;;;;;3.38;0.80;;;;;;;;;;4977738;28;20061;-72
2023/11/01 04:32:52;;;;;;;4.45;0.80;;;;;;;;;;5026048;28;20452;-70
2023/11/01 04:35:23;;;;;;;5.47;0.80;;;;;;;;;;5025671;28;20040;-74
2023/11/01 04:37:54;;;;;;;3.38;0.60;;;;;;;;;;5007921;28;20061;-71
2023/11/01 04:40:25;;;;;;;6.32;0.70;;;;;;;;;;5025243;28;20080;-73
2023/11/01 04:42:55;;;;;;;3.05;0.47;;;;;;;;;;5008249;28;20041;-74
2023/11/01 04:45:27;;;;;;;1.40;0.57;;;;;;;;;;5025322;28;20514;-73
2023/11/01 04:47:59;;;;;;;3.08;0.70;;;;;;;;;;5025613;28;20728;-72
2023/11/01 04:50:31;;;;;;;3.55;0.52;;;;;;;;;;5026153;28;20060;-73
2023/11/01 04:53:01;;;;;;;3.45;0.68;;;;;;;;;;5026424;28;20041;-72
2023/11/01 04:55:33;;;;;;;4.68;0.90;;;;;;;;;;5007416;28;20060;-72
2023/11/01 04:58:04;;;;;;;5.43;0.80;;;;;;;;;;5024831;28;20044;-70
2023/11/01 05:00:36;;;;;;;5.70;1.05;;;;;;;;;;5024971;28;20041;-73
2023/11/01 05:03:06;;;;;;;4.75;0.90;;;;;;;;;;5025234;28;20052;-73
2023/11/01 05:08:41;;;;;;;2.60;0.70;;;;;;;;;;5025204;28;20052;-73
2023/11/01 05:11:11;;;;;;;7.20;0.98;;;;;;;;;;5025027;28;20049;-73
2023/11/01 05:13:41;;;;;;;2.92;0.70;;;;;;;;;;5007438;28;20045;-72
2023/11/01 05:16:12;;;;;;;3.15;0.60;;;;;;;;;;5024736;28;20053;-73
2023/11/01 05:18:43;;;;;;;5.55;0.88;;;;;;;;;;5024384;28;20053;-72
2023/11/01 05:21:15;;;;;;;3.63;0.65;;;;;;;;;;5024776;28;20041;-73
2023/11/01 05:23:46;;;;;;;2.03;0.60;;;;;;;;;;5025317;28;20063;-72
2023/11/01 05:26:17;;;;;;;2.38;0.60;;;;;;;;;;5025223;28;20045;-72
2023/11/01 05:28:58;;;;;;;2.55;0.60;;;;;;;;;;5025110;28;20049;-72
2023/11/01 05:31:29;;;;;;;4.93;0.43;;;;;;;;;;5005818;28;20049;-70
2023/11/01 05:34:00;;;;;;;3.15;0.63;;;;;;;;;;5025049;28;20041;-72
2023/11/01 05:36:30;;;;;;;1.35;0.65;;;;;;;;;;5024339;28;20060;-73
2023/11/01 05:39:05;;;;;;;6.43;0.70;;;;;;;;;;5023675;28;20045;-72
2023/11/01 05:41:36;;;;;;;3.42;0.65;;;;;;;;;;5025675;28;20424;-72
2023/11/01 05:44:06;;;;;;;1.00;0.40;;;;;;;;;;5025164;28;20049;-70
2023/11/01 05:46:36;;;;;;;6.13;0.60;;;;;;;;;;5006774;28;20775;-70
2023/11/01 05:49:08;;;;;;;1.83;0.43;;;;;;;;;;5024069;28;20050;-72
2023/11/01 05:51:39;;;;;;;2.42;0.43;;;;;;;;;;5024131;28;20369;-72
2023/11/01 05:54:08;;;;;;;3.13;0.80;;;;;;;;;;5024116;28;20045;-71
2023/11/01 05:56:40;;;;;;;7.88;0.73;;;;;;;;;;5024456;28;20037;-74
2023/11/01 05:59:10;;;;;;;5.07;0.63;;;;;;;;;;5024084;28;20038;-73
2023/11/01 06:01:41;;;;;;;2.10;0.50;;;;;;;;;;5023472;28;20053;-70
2023/11/01 06:04:11;;;;;;;1.02;0.43;;;;;;;;;;5006808;28;20765;-74
2023/11/01 06:06:41;;;;;;;3.55;0.63;;;;;;;;;;5023837;28;20046;-71
2023/11/01 06:09:18;;;;;;;7.07;1.10;;;;;;;;;;5024558;28;20038;-73
2023/11/01 06:11:50;;;;;;;2.45;0.70;;;;;;;;;;5023631;28;20038;-73
2023/11/01 06:14:22;;;;;;;5.15;0.75;;;;;;;;;;5023808;28;20049;-72
2023/11/01 06:16:52;;;;;;;4.03;0.70;;;;;;;;;;5024218;28;20045;-73
2023/11/01 06:19:25;;;;;;;2.58;0.68;;;;;;;;;;5023948;28;20061;-72
2023/11/01 06:21:56;;;;;;;1.88;0.77;;;;;;;;;;5024287;28;20053;-72
2023/11/01 06:24:26;;;;;;;4.57;0.73;;;;;;;;;;5023649;28;20049;-72
2023/11/01 06:26:57;;;;;;;2.38;0.70;;;;;;;;;;5023389;28;20041;-73
2023/11/01 06:29:35;;;;;;;5.57;0.75;;;;;;;;;;5023060;28;20054;-72
2023/11/01 06:32:06;;;;;;;10.10;1.10;;;;;;;;;;5023650;28;20049;-72
2023/11/01 06:34:36;;;;;;;2.95;0.50;;;;;;;;;;5023590;28;20053;-73
2023/11/01 06:37:12;;;;;;;3.28;1.15;;;;;;;;;;5005966;28;20045;-71
2023/11/01 06:39:55;;;;;;;1.77;0.55;;;;;;;;;;5023676;28;20038;-72
2023/11/01 06:42:26;;;;;;;1.27;0.50;;;;;;;;;;5005543;28;20057;-72
2023/11/01 06:44:56;;;;;;;1.77;0.47;;;;;;;;;;5023612;28;20488;-73
2023/11/01 06:47:26;;;;;;;2.95;0.45;;;;;;;;;;5023125;28;20073;-72
2023/11/01 06:49:57;;;;;;;4.00;0.55;;;;;;;;;;5022819;28;20392;-73
2023/11/01 06:52:27;;;;;;;2.85;0.50;;;;;;;;;;5023120;28;21239;-72
2023/11/01 06:54:58;;;;;;;3.03;0.50;;;;;;;;;;5023220;28;20049;-73
2023/11/01 06:57:28;;;;;;;3.25;0.60;;;;;;;;;;5023336;28;20041;-71
2023/11/01 06:59:58;;;;;;;4.00;0.60;;;;;;;;;;5005024;28;20053;-70
2023/11/01 07:02:28;;;;;;;6.32;0.75;;;;;;;;;;5023786;28;20720;-74
2023/11/01 07:04:59;;;;;;;3.60;0.50;;;;;;;;;;5023667;28;20033;-74
2023/11/01 07:07:30;;;;;;;3.65;0.60;;;;;;;;;;5022615;28;20056;-73
2023/11/01 07:10:01;;;;;;;7.78;0.52;;;;;;;;;;5004788;28;20049;-73
2023/11/01 07:12:31;;;;;;;2.70;0.80;;;;;;;;;;5005753;28;20045;-73
2023/11/01 07:15:04;;;;;;;4.38;0.60;;;;;;;;;;5022707;28;20052;-73
2023/11/01 07:17:35;;;;;;;4.00;0.50;;;;;;;;;;5022873;28;20044;-73
2023/11/01 07:20:05;;;;;;;4.13;0.63;;;;;;;;;;5023017;28;20054;-73
2023/11/01 07:22:37;;;;;;;5.22;0.43;;;;;;;;;;5005356;28;20057;-71
2023/11/01 07:25:09;;;;;;;5.65;0.70;;;;;;;;;;5022619;28;20045;-72
2023/11/01 07:27:39;;;;;;;1.02;0.43;;;;;;;;;;5022606;28;20041;-71
2023/11/01 07:30:15;;;;;;;2.83;0.32;;;;;;;;;;5022594;28;20045;-71
2023/11/01 07:32:52;;;;;;;0.47;0.28;;;;;;;;;;4988537;28;20045;-72
2023/11/01 07:35:23;;;;;;;0.75;0.20;;;;;;;;;;5005819;28;20049;-70
2023/11/01 07:37:55;;;;;;;3.42;0.47;;;;;;;;;;5022556;28;20049;-72
2023/11/01 07:40:25;;;;;;;2.78;0.50;;;;;;;;;;5023067;28;20755;-71
2023/11/01 07:42:56;;;;;;;3.15;0.40;;;;;;;;;;5022555;28;20050;-74
2023/11/01 07:45:27;;;;;;;2.08;0.50;;;;;;;;;;5022234;28;20046;-70
2023/11/01 07:47:58;;;;;;;2.10;0.40;;;;;;;;;;5022145;28;20048;-70
2023/11/01 07:50:29;;;;;;;5.57;0.52;;;;;;;;;;5022636;28;20503;-72
2023/11/01 07:52:59;;;;;;;2.33;0.43;;;;;;;;;;5004730;28;20125;-71
2023/11/01 07:55:30;;;;;;;3.28;0.57;;;;;;;;;;5022270;28;20492;-71
2023/11/01 07:58:01;;;;;;;1.33;0.35;;;;;;;;;;5023174;28;20496;-73
2023/11/01 08:00:32;;;;;;;2.83;0.60;;;;;;;;;;5022460;28;20041;-73
2023/11/01 08:03:01;;;;;;;6.72;0.98;;;;;;;;;;5025631;28;20064;-74
2023/11/01 08:05:33;;;;;;;1.42;0.52;;;;;;;;;;5026551;28;20037;-73
2023/11/01 08:08:04;;;;;;;2.38;0.40;;;;;;;;;;5025916;28;20056;-70
2023/11/01 08:10:35;;;;;;;4.13;0.73;;;;;;;;;;5008041;28;20049;-71
2023/11/01 08:13:05;;;;;;;4.30;0.65;;;;;;;;;;5026586;28;20056;-72
2023/11/01 08:15:38;;;;;;;3.80;0.45;;;;;;;;;;5026146;28;20049;-71
2023/11/01 08:18:10;;;;;;;2.55;0.50;;;;;;;;;;5026041;28;20090;-73
2023/11/01 08:20:41;;;;;;;5.40;0.52;;;;;;;;;;5006441;28;20053;-72
2023/11/01 08:23:11;;;;;;;1.48;0.57;;;;;;;;;;5006190;28;20050;-72
2023/11/01 08:25:42;;;;;;;2.65;1.20;;;;;;;;;;5006197;28;20050;-71
2023/11/01 08:28:13;;;;;;;3.95;0.68;;;;;;;;;;5006062;28;20057;-72
2023/11/01 08:30:43;;;;;;;1.02;0.55;;;;;;;;;;5005503;28;20160;-74
2023/11/01 08:33:13;;;;;;;4.68;0.55;;;;;;;;;;5006097;28;20871;-72
2023/11/01 08:35:43;;;;;;;3.80;0.55;;;;;;;;;;5005325;28;20046;-71
2023/11/01 08:38:14;;;;;;;5.10;0.80;;;;;;;;;;5006763;28;20050;-71
2023/11/01 08:40:45;;;;;;;3.10;0.70;;;;;;;;;;4988659;28;20046;-70
2023/11/01 08:43:17;;;;;;;1.48;0.47;;;;;;;;;;5005807;28;20046;-72
2023/11/01 08:46:18;;;;;;;4.28;0.70;;;;;;;;;;5005371;28;20508;-73
2023/11/01 08:48:50;;;;;;;3.72;0.60;;;;;;;;;;5005624;28;20050;-73
2023/11/01 08:51:20;;;;;;;3.20;0.70;;;;;;;;;;5005567;28;20041;-72
2023/11/01 08:53:50;;;;;;;6.13;0.40;;;;;;;;;;5006278;28;20046;-75
2023/11/01 08:56:20;;;;;;;2.70;0.75;;;;;;;;;;5006130;28;20042;-71
2023/11/01 08:58:50;;;;;;;3.13;0.85;;;;;;;;;;4988326;28;20046;-70
2023/11/01 09:01:21;;;;;;;7.97;0.82;;;;;;;;;;5005299;28;20056;-71
2023/11/01 09:03:52;;;;;;;3.45;0.50;;;;;;;;;;5005457;28;20707;-74
2023/11/01 09:06:23;;;;;;;4.13;0.80;;;;;;;;;;5005278;28;20041;-72
2023/11/01 09:08:52;;;;;;;4.53;0.93;;;;;;;;;;5005596;28;20046;-73
2023/11/01 09:11:25;;;;;;;0.85;0.63;;;;;;;;;;5005347;28;20393;-72
2023/11/01 09:13:56;;;;;;;2.75;0.40;;;;;;;;;;4987730;28;20049;-74
2023/11/01 09:16:26;;;;;;;4.55;0.57;;;;;;;;;;5005505;28;20511;-75
2023/11/01 09:18:57;;;;;;;7.38;0.50;;;;;;;;;;5010560;28;20393;-74
2023/11/01 09:21:28;;;;;;;4.20;0.50;;;;;;;;;;5024764;28;20041;-75
2023/11/01 09:23:58;;;;;;;2.83;0.63;;;;;;;;;;5024976;28;20045;-75
2023/11/01 09:26:29;;;;;;;2.97;0.50;;;;;;;;;;5025563;28;20361;-75
2023/11/01 09:29:01;;;;;;;3.95;0.70;;;;;;;;;;5024957;28;20385;-74
2023/11/01 09:31:42;;;;;;;4.20;0.68;;;;;;;;;;5006842;28;20076;-73
2023/11/01 09:34:13;;;;;;;2.42;0.60;;;;;;;;;;5023906;28;20053;-72
2023/11/01 09:36:43;;;;;;;6.00;0.40;;;;;;;;;;5024551;28;20048;-72
2023/11/01 09:39:13;;;;;;;4.22;0.50;;;;;;;;;;5024380;28;20492;-73
2023/11/01 09:41:50;;;;;;;2.30;0.40;;;;;;;;;;5024577;28;20038;-73
2023/11/01 09:44:22;;;;;;;1.38;0.50;;;;;;;;;;5024615;28;20052;-74
2023/11/01 09:46:55;;;;;;;2.33;0.82;;;;;;;;;;5024334;28;20048;-74
2023/11/01 09:49:31;;;;;;;1.15;0.45;;;;;;;;;;5024125;28;20045;-71
2023/11/01 09:52:04;;;;;;;3.90;0.70;;;;;;;;;;5024807;28;20503;-73
2023/11/01 09:55:06;;;;;;;1.95;0.50;;;;;;;;;;5024148;28;20085;-72
2023/11/01 09:57:39;;;;;;;2.22;0.75;;;;;;;;;;5023596;28;20492;-74
2023/11/01 10:00:11;;;;;;;3.28;1.00;;;;;;;;;;5024846;28;20056;-73
2023/11/01 10:02:42;;;;;;;4.25;0.40;;;;;;;;;;5004042;28;20056;-75
2023/11/01 10:05:13;;;;;;;4.18;0.63;;;;;;;;;;5024721;28;20819;-73
2023/11/01 10:07:45;;;;;;;1.73;0.43;;;;;;;;;;5024361;28;20049;-74
2023/11/01 10:10:18;;;;;;;2.40;0.40;;;;;;;;;;5006412;28;20060;-73
2023/11/01 10:12:48;;;;;;;2.10;0.40;;;;;;;;;;5024490;28;20065;-71
2023/11/01 10:15:21;;;;;;;3.40;0.80;;;;;;;;;;5005573;28;20528;-73
2023/11/01 10:17:54;;;;;;;1.83;0.30;;;;;;;;;;5023018;28;20053;-74
2023/11/01 10:20:28;;;;;;;1.48;0.43;;;;;;;;;;5023641;28;20057;-73
2023/11/01 10:22:59;;;;;;;7.30;2.78;;;;;;;;;;5023807;28;20057;-73
2023/11/01 10:25:31;;;;;;;1.80;0.43;;;;;;;;;;5022591;28;20045;-75
2023/11/01 10:28:02;;;;;;;3.97;0.38;;;;;;;;;;5023528;28;20369;-73
2023/11/01 10:30:32;;;;;;;7.03;0.60;;;;;;;;;;5023678;28;20038;-74
2023/11/01 10:33:02;;;;;;;2.55;0.60;;;;;;;;;;5023591;28;20045;-75
2023/11/01 10:35:34;;;;;;;1.98;0.38;;;;;;;;;;5023264;28;20784;-74
2023/11/01 10:38:05;;;;;;;3.40;0.52;;;;;;;;;;5023058;28;20049;-72
2023/11/01 10:40:37;;;;;;;1.25;0.43;;;;;;;;;;5004659;28;20508;-78
2023/11/01 10:43:09;;;;;;;6.28;0.50;;;;;;;;;;5005978;28;20037;-73
2023/11/01 10:45:40;;;;;;;4.20;0.45;;;;;;;;;;5023585;28;20048;-75
2023/11/01 10:48:11;;;;;;;0.57;0.10;;;;;;;;;;5023643;28;20041;-74
2023/11/01 10:50:47;;;;;;;1.70;0.30;;;;;;;;;;5023807;28;20056;-72
2023/11/01 10:53:22;;;;;;;0.38;0.20;;;;;;;;;;5023143;28;20060;-72
2023/11/01 10:55:56;;;;;;;0.93;0.70;;;;;;;;;;5022475;28;20041;-82
2023/11/01 10:58:29;;;;;;;3.13;0.52;;;;;;;;;;5022977;28;20037;-76
2023/11/01 11:01:26;;;;;;;2.65;0.30;;;;;;;;;;5022703;28;20070;-75
2023/11/01 11:04:10;;;;;;;0.88;0.35;;;;;;;;;;5022424;28;20041;-72
2023/11/01 11:06:51;;;;;;;1.92;0.40;;;;;;;;;;5022922;28;20049;-73
2023/11/01 11:09:25;;;;;;;3.22;0.70;;;;;;;;;;5004456;28;20049;-76
2023/11/01 11:12:24;;;;;;;2.03;0.60;;;;;;;;;;5022652;28;20388;-74
2023/11/01 11:14:55;;;;;;;2.63;0.80;;;;;;;;;;5029287;28;20057;-74
2023/11/01 11:17:25;;;;;;;3.90;0.57;;;;;;;;;;5043370;28;20036;-78
2023/11/01 11:20:09;;;;;;;1.88;0.40;;;;;;;;;;5023324;28;20056;-72
2023/11/01 11:23:00;;;;;;;3.22;0.43;;;;;;;;;;5042209;28;20487;-74
2023/11/01 11:25:45;;;;;;;2.85;0.60;;;;;;;;;;5042377;28;20032;-73
2023/11/01 11:28:20;;;;;;;4.55;0.60;;;;;;;;;;5042313;28;20508;-73
2023/11/01 11:31:03;;;;;;;2.53;0.45;;;;;;;;;;5042093;28;20057;-74
2023/11/01 11:33:35;;;;;;;5.97;0.60;;;;;;;;;;5041844;28;20041;-74
2023/11/01 11:36:16;;;;;;;3.40;0.82;;;;;;;;;;5040515;28;20578;-74
2023/11/01 11:38:51;;;;;;;2.33;0.63;;;;;;;;;;5041323;28;20052;-73
2023/11/01 11:41:29;;;;;;;4.68;0.47;;;;;;;;;;5041693;28;20071;-73
2023/11/01 11:44:13;;;;;;;3.22;0.52;;;;;;;;;;5041572;28;20052;-72
2023/11/01 11:46:47;;;;;;;1.27;0.45;;;;;;;;;;5024623;28;20041;-72
2023/11/01 11:49:30;;;;;;;1.60;0.40;;;;;;;;;;5042430;28;20033;-75
2023/11/01 11:52:09;;;;;;;2.42;0.43;;;;;;;;;;5042259;28;20037;-73
2023/11/01 11:54:50;;;;;;;1.30;0.45;;;;;;;;;;5042221;28;20045;-73
2023/11/01 11:57:42;;;;;;;2.80;0.50;;;;;;;;;;5041892;28;20056;-72
2023/11/01 12:00:13;;;;;;;2.78;0.50;;;;;;;;;;5041863;28;20040;-80
2023/11/01 12:02:48;;;;;;;1.88;0.45;;;;;;;;;;5025523;28;20475;-80
2023/11/01 12:05:18;;;;;;;1.17;0.40;;;;;;;;;;5042240;28;20041;-81
2023/11/01 12:07:58;;;;;;;2.25;0.85;;;;;;;;;;5024935;28;20399;-80
2023/11/01 12:10:29;;;;;;;3.63;1.27;;;;;;;;;;5038555;28;20063;-79
2023/11/01 12:13:00;;;;;;;1.48;0.70;;;;;;;;;;5041847;28;20053;-80
2023/11/01 12:15:41;;;;;;;2.10;0.47;;;;;;;;;;5024277;28;20406;-81
2023/11/01 12:18:11;;;;;;;;;;;;;;;;;;5041897;28;20056;-73
2023/11/01 12:20:41;;;;;;;2.78;0.70;;;;;;;;;;5021726;28;19921;-73
2023/11/01 12:23:11;;;;;;;3.20;0.80;;;;;;;;;;5004830;28;20046;-73
2023/11/01 12:25:42;;;;;;;1.95;0.73;;;;;;;;;;5004594;28;20050;-75
2023/11/01 12:28:22;;;;;;;1.55;0.57;;;;;;;;;;4985446;28;20054;-76
2023/11/01 12:30:55;;;;;;;0.45;0.30;;;;;;;;;;5004311;28;20049;-76
2023/11/01 12:33:33;;;;;;;2.05;0.73;;;;;;;;;;5021808;28;20050;-74
2023/11/01 12:36:04;;;;;;;2.33;0.40;;;;;;;;;;5022071;28;20037;-76
2023/11/01 12:38:36;;;;;;;2.92;0.60;;;;;;;;;;5022860;28;20050;-72
2023/11/01 12:41:12;;;;;;;0.98;0.32;;;;;;;;;;5022569;28;20653;-77
2023/11/01 12:43:52;;;;;;;2.65;0.47;;;;;;;;;;5002545;28;20057;-73
2023/11/01 12:46:23;;;;;;;1.75;0.60;;;;;;;;;;5021873;28;20544;-81
2023/11/01 12:49:02;;;;;;;0.47;0.22;;;;;;;;;;5024582;28;20041;-71
2023/11/01 12:51:33;;;;;;;3.30;1.10;;;;;;;;;;5007835;28;20500;-76
2023/11/01 12:54:03;;;;;;;1.52;0.30;;;;;;;;;;5024853;28;20050;-75
2023/11/01 12:56:34;;;;;;;1.20;0.32;;;;;;;;;;5025398;28;20045;-75
2023/11/01 12:59:05;;;;;;;1.02;0.30;;;;;;;;;;5024819;28;20046;-79
2023/11/01 13:01:35;;;;;;;0.95;0.40;;;;;;;;;;5024922;28;20072;-76
2023/11/01 13:04:07;;;;;;;2.03;0.47;;;;;;;;;;5024977;28;20041;-75
2023/11/01 13:06:39;;;;;;;1.10;0.20;;;;;;;;;;5024697;28;20072;-75
2023/11/01 13:09:13;;;;;;;0.98;0.43;;;;;;;;;;5025634;28;20042;-77
2023/11/01 13:11:44;;;;;;;1.05;0.50;;;;;;;;;;5025285;28;20488;-73
2023/11/01 13:14:26;;;;;;;1.35;0.30;;;;;;;;;;5025433;28;20053;-75
2023/11/01 13:16:57;;;;;;;1.17;0.45;;;;;;;;;;5023459;28;20068;-75
2023/11/01 13:19:28;;;;;;;0.80;0.30;;;;;;;;;;5034260;28;20053;-74
2023/11/01 13:21:58;;;;;;;2.05;0.32;;;;;;;;;;5044803;28;20041;-76
2023/11/01 13:24:28;;;;;;;3.42;0.30;;;;;;;;;;5044590;28;20037;-75
2023/11/01 13:27:03;;;;;;;1.13;0.55;;;;;;;;;;5044842;28;20044;-75
2023/11/01 13:29:34;;;;;;;0.30;0.22;;;;;;;;;;5025153;28;20064;-73
2023/11/01 13:32:07;;;;;;;0.73;0.50;;;;;;;;;;5044698;28;20400;-74
2023/11/01 13:34:38;;;;;;;0.65;0.40;;;;;;;;;;5044609;28;20040;-74
2023/11/01 13:37:08;;;;;;;1.77;0.75;;;;;;;;;;5044586;28;20488;-73
2023/11/01 13:39:38;;;;;;;1.70;0.40;;;;;;;;;;5044773;28;20033;-75
2023/11/01 13:42:08;;;;;;;2.55;0.50;;;;;;;;;;5044773;28;20377;-74
2023/11/01 13:44:41;;;;;;;1.65;0.32;;;;;;;;;;5026050;28;20049;-74
2023/11/01 13:47:11;;;;;;;0.95;0.47;;;;;;;;;;5043922;28;20041;-74
2023/11/01 13:49:42;;;;;;;3.50;0.77;;;;;;;;;;5044698;28;20045;-75
2023/11/01 13:52:12;;;;;;;2.92;0.80;;;;;;;;;;5044394;28;20041;-75
2023/11/01 13:54:43;;;;;;;3.08;0.70;;;;;;;;;;5044208;28;20060;-73
2023/11/01 13:57:14;;;;;;;3.17;0.50;;;;;;;;;;5044617;28;20696;-74
2023/11/01 13:59:44;;;;;;;2.75;0.47;;;;;;;;;;5042912;28;20045;-72
2023/11/01 14:02:15;;;;;;;3.22;0.50;;;;;;;;;;5043949;28;20312;-79
2023/11/01 14:04:46;;;;;;;2.60;0.43;;;;;;;;;;5044484;28;20041;-73
2023/11/01 14:07:16;;;;;;;5.82;0.88;;;;;;;;;;5044095;28;20502;-70
2023/11/01 14:09:47;;;;;;;3.25;0.60;;;;;;;;;;5024839;28;20056;-73
2023/11/01 14:12:18;;;;;;;4.95;0.52;;;;;;;;;;5044382;28;20075;-72
2023/11/01 14:14:52;;;;;;;4.97;0.90;;;;;;;;;;5043556;28;20044;-73
2023/11/01 14:17:23;;;;;;;1.92;0.45;;;;;;;;;;5043820;28;20487;-71
2023/11/01 14:19:54;;;;;;;1.17;0.43;;;;;;;;;;5043861;28;20371;-74
2023/11/01 14:22:24;;;;;;;0.95;0.47;;;;;;;;;;5025077;28;20068;-72
2023/11/01 14:24:55;;;;;;;1.50;0.60;;;;;;;;;;5043767;28;20055;-73
2023/11/01 14:27:25;;;;;;;3.15;0.57;;;;;;;;;;5043568;28;20507;-80
2023/11/01 14:29:55;;;;;;;3.85;0.47;;;;;;;;;;5043273;28;20045;-73
2023/11/01 14:32:27;;;;;;;2.50;0.57;;;;;;;;;;5043835;28;20052;-72
2023/11/01 14:35:00;;;;;;;3.22;0.50;;;;;;;;;;5044034;28;20056;-75
2023/11/01 14:37:41;;;;;;;3.47;0.65;;;;;;;;;;5043072;28;20045;-72
2023/11/01 14:40:14;;;;;;;;;;;;;;;;;;5043141;28;20048;-73
2023/11/01 14:42:45;;;;;;;1.80;0.35;;;;;;;;;;5025675;28;19920;-73
2023/11/01 14:45:30;;;;;;;5.30;0.60;;;;;;;;;;5043024;28;20526;-72
2023/11/01 14:48:11;;;;;;;2.55;0.60;;;;;;;;;;5026713;28;20388;-73
2023/11/01 14:50:42;;;;;;;2.97;0.55;;;;;;;;;;5042883;28;20068;-74
2023/11/01 14:53:13;;;;;;;3.45;0.60;;;;;;;;;;5042858;28;20037;-72
2023/11/01 14:55:43;;;;;;;2.95;0.70;;;;;;;;;;5043216;28;20049;-71
2023/11/01 14:58:13;;;;;;;4.35;0.70;;;;;;;;;;5042643;28;20621;-76
2023/11/01 15:00:45;;;;;;;2.80;0.57;;;;;;;;;;5043049;28;20049;-75
2023/11/01 15:03:16;;;;;;;3.30;0.95;;;;;;;;;;5042931;28;20052;-75
2023/11/01 15:05:47;;;;;;;2.03;0.40;;;;;;;;;;5024391;28;20053;-73
2023/11/01 15:08:17;;;;;;;3.80;0.43;;;;;;;;;;5043445;28;20046;-74
2023/11/01 15:10:48;;;;;;;2.13;0.93;;;;;;;;;;5042900;28;20049;-74
2023/11/01 15:13:18;;;;;;;3.95;0.50;;;;;;;;;;5042517;28;20041;-74
2023/11/01 15:15:48;;;;;;;2.85;0.40;;;;;;;;;;5042481;28;20864;-76
2023/11/01 15:18:19;;;;;;;3.15;0.95;;;;;;;;;;5042069;28;20052;-75